sensor_id;sensor_type;location;lat;lon;timestamp;P1;durP1;ratioP1;P2;durP2;ratioP2
18102;SDS011;9178;51.120;6.192;2022-07-23T00:01:18;4.73;;;4.23;;
18102;SDS011;9178;51.120;6.192;2022-07-23T00:03:45;7.93;;;4.63;;
18102;SDS011;9178;51.120;6.192;2022-07-23T00:06:12;6.60;;;5.20;;
18102;SDS011;9178;51.120;6.192;2022-07-23T00:08:39;6.20;;;4.83;;
18102;SDS011;9178;51.120;6.192;2022-07-23T00:11:06;5.97;;;4.60;;
18102;SDS011;9178;51.120;6.192;2022-07-23T00:13:33;5.10;;;4.60;;
18102;SDS011;9178;51.120;6.192;2022-07-23T00:16:01;5.77;;;4.70;;
18102;SDS011;9178;51.120;6.192;2022-07-23T00:18:28;5.23;;;4.63;;
18102;SDS011;9178;51.120;6.192;2022-07-23T00:20:55;6.27;;;4.87;;
18102;SDS011;9178;51.120;6.192;2022-07-23T00:23:22;4.77;;;3.93;;
18102;SDS011;9178;51.120;6.192;2022-07-23T00:25:50;7.43;;;4.90;;
18102;SDS011;9178;51.120;6.192;2022-07-23T00:28:17;6.80;;;4.67;;
18102;SDS011;9178;51.120;6.192;2022-07-23T00:30:44;6.20;;;4.77;;
18102;SDS011;9178;51.120;6.192;2022-07-23T00:33:12;7.17;;;5.00;;
18102;SDS011;9178;51.120;6.192;2022-07-23T00:35:40;7.40;;;5.40;;
18102;SDS011;9178;51.120;6.192;2022-07-23T00:38:07;8.23;;;5.00;;
18102;SDS011;9178;51.120;6.192;2022-07-23T00:40:35;6.37;;;5.50;;
18102;SDS011;9178;51.120;6.192;2022-07-23T00:43:04;7.20;;;5.27;;
18102;SDS011;9178;51.120;6.192;2022-07-23T00:45:31;9.03;;;5.57;;
18102;SDS011;9178;51.120;6.192;2022-07-23T00:47:58;8.90;;;5.60;;
18102;SDS011;9178;51.120;6.192;2022-07-23T00:50:27;7.30;;;5.70;;
18102;SDS011;9178;51.120;6.192;2022-07-23T00:52:53;9.90;;;6.23;;
18102;SDS011;9178;51.120;6.192;2022-07-23T00:55:21;7.67;;;5.17;;
18102;SDS011;9178;51.120;6.192;2022-07-23T00:57:48;10.87;;;5.67;;
18102;SDS011;9178;51.120;6.192;2022-07-23T01:00:16;6.83;;;5.20;;
18102;SDS011;9178;51.120;6.192;2022-07-23T01:02:43;6.60;;;5.83;;
18102;SDS011;9178;51.120;6.192;2022-07-23T01:05:10;6.57;;;5.53;;
18102;SDS011;9178;51.120;6.192;2022-07-23T01:07:39;6.03;;;5.43;;
18102;SDS011;9178;51.120;6.192;2022-07-23T01:10:07;9.43;;;6.50;;
18102;SDS011;9178;51.120;6.192;2022-07-23T01:12:48;6.33;;;5.70;;
18102;SDS011;9178;51.120;6.192;2022-07-23T01:15:15;5.93;;;5.33;;
18102;SDS011;9178;51.120;6.192;2022-07-23T01:17:41;7.20;;;5.90;;
18102;SDS011;9178;51.120;6.192;2022-07-23T01:20:09;6.87;;;6.10;;
18102;SDS011;9178;51.120;6.192;2022-07-23T01:22:37;7.27;;;5.77;;
18102;SDS011;9178;51.120;6.192;2022-07-23T01:25:04;6.37;;;5.70;;
18102;SDS011;9178;51.120;6.192;2022-07-23T01:27:32;6.67;;;5.70;;
18102;SDS011;9178;51.120;6.192;2022-07-23T01:29:59;6.83;;;5.60;;
18102;SDS011;9178;51.120;6.192;2022-07-23T01:32:27;7.03;;;6.07;;
18102;SDS011;9178;51.120;6.192;2022-07-23T01:34:53;6.73;;;5.73;;
18102;SDS011;9178;51.120;6.192;2022-07-23T01:37:20;7.87;;;5.87;;
18102;SDS011;9178;51.120;6.192;2022-07-23T01:39:48;8.07;;;5.57;;
18102;SDS011;9178;51.120;6.192;2022-07-23T01:42:15;6.90;;;5.27;;
18102;SDS011;9178;51.120;6.192;2022-07-23T01:44:42;10.30;;;6.20;;
18102;SDS011;9178;51.120;6.192;2022-07-23T01:47:09;6.83;;;6.07;;
18102;SDS011;9178;51.120;6.192;2022-07-23T01:49:35;6.80;;;6.20;;
18102;SDS011;9178;51.120;6.192;2022-07-23T01:52:03;6.93;;;6.23;;
18102;SDS011;9178;51.120;6.192;2022-07-23T01:54:34;8.67;;;5.80;;
18102;SDS011;9178;51.120;6.192;2022-07-23T01:57:02;6.73;;;6.10;;
18102;SDS011;9178;51.120;6.192;2022-07-23T01:59:29;7.43;;;5.77;;
18102;SDS011;9178;51.120;6.192;2022-07-23T02:01:56;6.63;;;5.60;;
18102;SDS011;9178;51.120;6.192;2022-07-23T02:04:24;6.17;;;5.57;;
18102;SDS011;9178;51.120;6.192;2022-07-23T02:06:51;6.80;;;6.20;;
18102;SDS011;9178;51.120;6.192;2022-07-23T02:09:18;8.07;;;6.17;;
18102;SDS011;9178;51.120;6.192;2022-07-23T02:11:45;10.43;;;6.50;;
18102;SDS011;9178;51.120;6.192;2022-07-23T02:14:13;6.47;;;5.87;;
18102;SDS011;9178;51.120;6.192;2022-07-23T02:16:40;7.17;;;5.70;;
18102;SDS011;9178;51.120;6.192;2022-07-23T02:19:07;7.70;;;5.60;;
18102;SDS011;9178;51.120;6.192;2022-07-23T02:21:34;8.83;;;5.70;;
18102;SDS011;9178;51.120;6.192;2022-07-23T02:24:01;10.03;;;5.40;;
18102;SDS011;9178;51.120;6.192;2022-07-23T02:26:27;6.13;;;5.50;;
18102;SDS011;9178;51.120;6.192;2022-07-23T02:28:54;6.70;;;6.00;;
18102;SDS011;9178;51.120;6.192;2022-07-23T02:31:22;6.83;;;5.87;;
18102;SDS011;9178;51.120;6.192;2022-07-23T02:33:49;5.30;;;4.80;;
18102;SDS011;9178;51.120;6.192;2022-07-23T02:36:16;6.50;;;4.80;;
18102;SDS011;9178;51.120;6.192;2022-07-23T02:38:43;7.00;;;5.40;;
18102;SDS011;9178;51.120;6.192;2022-07-23T02:41:09;6.33;;;5.33;;
18102;SDS011;9178;51.120;6.192;2022-07-23T02:43:36;10.03;;;5.93;;
18102;SDS011;9178;51.120;6.192;2022-07-23T02:46:03;8.33;;;5.23;;
18102;SDS011;9178;51.120;6.192;2022-07-23T02:48:31;6.37;;;5.00;;
18102;SDS011;9178;51.120;6.192;2022-07-23T02:50:58;6.73;;;5.00;;
18102;SDS011;9178;51.120;6.192;2022-07-23T02:53:25;6.70;;;5.07;;
18102;SDS011;9178;51.120;6.192;2022-07-23T02:55:52;7.37;;;5.83;;
18102;SDS011;9178;51.120;6.192;2022-07-23T02:58:18;6.20;;;5.17;;
18102;SDS011;9178;51.120;6.192;2022-07-23T03:00:46;6.50;;;5.33;;
18102;SDS011;9178;51.120;6.192;2022-07-23T03:03:13;5.97;;;5.27;;
18102;SDS011;9178;51.120;6.192;2022-07-23T03:05:41;6.33;;;4.90;;
18102;SDS011;9178;51.120;6.192;2022-07-23T03:08:08;9.63;;;6.13;;
18102;SDS011;9178;51.120;6.192;2022-07-23T03:10:35;7.20;;;5.17;;
18102;SDS011;9178;51.120;6.192;2022-07-23T03:13:01;5.07;;;4.63;;
18102;SDS011;9178;51.120;6.192;2022-07-23T03:15:28;9.07;;;4.93;;
18102;SDS011;9178;51.120;6.192;2022-07-23T03:17:55;9.87;;;6.30;;
18102;SDS011;9178;51.120;6.192;2022-07-23T03:20:22;10.13;;;6.07;;
18102;SDS011;9178;51.120;6.192;2022-07-23T03:22:50;5.87;;;5.07;;
18102;SDS011;9178;51.120;6.192;2022-07-23T03:25:17;11.20;;;6.17;;
18102;SDS011;9178;51.120;6.192;2022-07-23T03:27:44;7.00;;;5.77;;
18102;SDS011;9178;51.120;6.192;2022-07-23T03:30:11;8.83;;;6.17;;
18102;SDS011;9178;51.120;6.192;2022-07-23T03:32:38;8.27;;;6.27;;
18102;SDS011;9178;51.120;6.192;2022-07-23T03:35:05;7.63;;;6.63;;
18102;SDS011;9178;51.120;6.192;2022-07-23T03:37:32;8.43;;;6.77;;
18102;SDS011;9178;51.120;6.192;2022-07-23T03:40:00;9.23;;;6.27;;
18102;SDS011;9178;51.120;6.192;2022-07-23T03:42:27;10.77;;;5.43;;
18102;SDS011;9178;51.120;6.192;2022-07-23T03:44:54;7.33;;;4.90;;
18102;SDS011;9178;51.120;6.192;2022-07-23T03:47:21;7.27;;;4.87;;
18102;SDS011;9178;51.120;6.192;2022-07-23T03:49:48;8.47;;;5.73;;
18102;SDS011;9178;51.120;6.192;2022-07-23T03:52:15;9.03;;;6.27;;
18102;SDS011;9178;51.120;6.192;2022-07-23T03:54:42;9.07;;;6.27;;
18102;SDS011;9178;51.120;6.192;2022-07-23T03:57:10;8.30;;;6.80;;
18102;SDS011;9178;51.120;6.192;2022-07-23T03:59:37;8.23;;;6.63;;
18102;SDS011;9178;51.120;6.192;2022-07-23T04:02:03;7.60;;;6.83;;
18102;SDS011;9178;51.120;6.192;2022-07-23T04:04:30;8.63;;;6.50;;
18102;SDS011;9178;51.120;6.192;2022-07-23T04:06:57;10.27;;;7.00;;
18102;SDS011;9178;51.120;6.192;2022-07-23T04:09:24;7.90;;;6.87;;
18102;SDS011;9178;51.120;6.192;2022-07-23T04:11:51;7.83;;;6.30;;
18102;SDS011;9178;51.120;6.192;2022-07-23T04:14:19;10.70;;;6.90;;
18102;SDS011;9178;51.120;6.192;2022-07-23T04:16:46;9.77;;;6.60;;
18102;SDS011;9178;51.120;6.192;2022-07-23T04:19:12;8.63;;;6.53;;
18102;SDS011;9178;51.120;6.192;2022-07-23T04:21:39;7.73;;;6.70;;
18102;SDS011;9178;51.120;6.192;2022-07-23T04:24:06;9.10;;;6.40;;
18102;SDS011;9178;51.120;6.192;2022-07-23T04:26:33;9.37;;;6.40;;
18102;SDS011;9178;51.120;6.192;2022-07-23T04:29:00;7.37;;;6.53;;
18102;SDS011;9178;51.120;6.192;2022-07-23T04:31:28;10.77;;;6.53;;
18102;SDS011;9178;51.120;6.192;2022-07-23T04:33:55;7.73;;;6.17;;
18102;SDS011;9178;51.120;6.192;2022-07-23T04:36:21;7.80;;;6.60;;
18102;SDS011;9178;51.120;6.192;2022-07-23T04:38:48;8.73;;;6.33;;
18102;SDS011;9178;51.120;6.192;2022-07-23T04:41:15;7.60;;;6.73;;
18102;SDS011;9178;51.120;6.192;2022-07-23T04:43:42;9.60;;;6.60;;
18102;SDS011;9178;51.120;6.192;2022-07-23T04:46:08;8.70;;;7.43;;
18102;SDS011;9178;51.120;6.192;2022-07-23T04:48:38;11.30;;;6.83;;
18102;SDS011;9178;51.120;6.192;2022-07-23T04:51:05;10.17;;;7.70;;
18102;SDS011;9178;51.120;6.192;2022-07-23T04:53:32;9.90;;;7.50;;
18102;SDS011;9178;51.120;6.192;2022-07-23T04:55:58;8.43;;;6.43;;
18102;SDS011;9178;51.120;6.192;2022-07-23T04:58:25;11.27;;;7.47;;
18102;SDS011;9178;51.120;6.192;2022-07-23T05:00:52;9.87;;;6.90;;
18102;SDS011;9178;51.120;6.192;2022-07-23T05:03:19;8.00;;;6.70;;
18102;SDS011;9178;51.120;6.192;2022-07-23T05:05:47;10.07;;;7.13;;
18102;SDS011;9178;51.120;6.192;2022-07-23T05:08:14;8.37;;;7.07;;
18102;SDS011;9178;51.120;6.192;2022-07-23T05:10:41;8.27;;;7.37;;
18102;SDS011;9178;51.120;6.192;2022-07-23T05:13:07;13.93;;;7.63;;
18102;SDS011;9178;51.120;6.192;2022-07-23T05:15:34;9.20;;;7.50;;
18102;SDS011;9178;51.120;6.192;2022-07-23T05:18:01;9.37;;;7.67;;
18102;SDS011;9178;51.120;6.192;2022-07-23T05:20:28;9.90;;;7.93;;
18102;SDS011;9178;51.120;6.192;2022-07-23T05:22:56;8.37;;;7.37;;
18102;SDS011;9178;51.120;6.192;2022-07-23T05:25:23;13.10;;;8.27;;
18102;SDS011;9178;51.120;6.192;2022-07-23T05:27:50;10.93;;;8.20;;
18102;SDS011;9178;51.120;6.192;2022-07-23T05:30:17;12.30;;;7.93;;
18102;SDS011;9178;51.120;6.192;2022-07-23T05:32:44;10.67;;;7.77;;
18102;SDS011;9178;51.120;6.192;2022-07-23T05:35:11;9.07;;;7.60;;
18102;SDS011;9178;51.120;6.192;2022-07-23T05:37:38;14.00;;;7.80;;
18102;SDS011;9178;51.120;6.192;2022-07-23T05:40:08;12.07;;;8.07;;
18102;SDS011;9178;51.120;6.192;2022-07-23T05:42:36;10.50;;;7.87;;
18102;SDS011;9178;51.120;6.192;2022-07-23T05:45:04;9.47;;;7.47;;
18102;SDS011;9178;51.120;6.192;2022-07-23T05:47:38;9.13;;;8.17;;
18102;SDS011;9178;51.120;6.192;2022-07-23T05:50:06;9.57;;;8.40;;
18102;SDS011;9178;51.120;6.192;2022-07-23T05:52:33;9.87;;;8.10;;
18102;SDS011;9178;51.120;6.192;2022-07-23T05:55:00;11.40;;;7.80;;
18102;SDS011;9178;51.120;6.192;2022-07-23T05:57:28;17.53;;;8.83;;
18102;SDS011;9178;51.120;6.192;2022-07-23T05:59:55;18.47;;;8.20;;
18102;SDS011;9178;51.120;6.192;2022-07-23T06:02:22;13.23;;;8.70;;
18102;SDS011;9178;51.120;6.192;2022-07-23T06:04:49;14.77;;;8.73;;
18102;SDS011;9178;51.120;6.192;2022-07-23T06:07:15;17.27;;;8.60;;
18102;SDS011;9178;51.120;6.192;2022-07-23T06:09:42;11.50;;;8.47;;
18102;SDS011;9178;51.120;6.192;2022-07-23T06:12:11;11.80;;;8.90;;
18102;SDS011;9178;51.120;6.192;2022-07-23T06:14:39;11.33;;;8.63;;
18102;SDS011;9178;51.120;6.192;2022-07-23T06:17:07;11.87;;;9.07;;
18102;SDS011;9178;51.120;6.192;2022-07-23T06:19:34;14.10;;;9.00;;
18102;SDS011;9178;51.120;6.192;2022-07-23T06:22:01;14.47;;;9.77;;
18102;SDS011;9178;51.120;6.192;2022-07-23T06:24:28;15.20;;;9.77;;
18102;SDS011;9178;51.120;6.192;2022-07-23T06:26:54;10.07;;;8.90;;
18102;SDS011;9178;51.120;6.192;2022-07-23T06:29:21;12.17;;;9.20;;
18102;SDS011;9178;51.120;6.192;2022-07-23T06:31:49;15.70;;;9.60;;
18102;SDS011;9178;51.120;6.192;2022-07-23T06:34:16;12.03;;;10.00;;
18102;SDS011;9178;51.120;6.192;2022-07-23T06:36:43;18.47;;;11.10;;
18102;SDS011;9178;51.120;6.192;2022-07-23T06:39:10;15.40;;;10.90;;
18102;SDS011;9178;51.120;6.192;2022-07-23T06:41:37;17.63;;;11.63;;
18102;SDS011;9178;51.120;6.192;2022-07-23T06:44:03;15.23;;;11.53;;
18102;SDS011;9178;51.120;6.192;2022-07-23T06:46:30;13.90;;;10.33;;
18102;SDS011;9178;51.120;6.192;2022-07-23T06:48:59;17.30;;;11.73;;
18102;SDS011;9178;51.120;6.192;2022-07-23T06:51:25;15.00;;;11.45;;
18102;SDS011;9178;51.120;6.192;2022-07-23T06:53:52;16.40;;;12.70;;
18102;SDS011;9178;51.120;6.192;2022-07-23T06:56:19;16.67;;;12.43;;
18102;SDS011;9178;51.120;6.192;2022-07-23T06:58:46;14.20;;;11.45;;
18102;SDS011;9178;51.120;6.192;2022-07-23T07:01:13;17.70;;;12.00;;
18102;SDS011;9178;51.120;6.192;2022-07-23T07:03:39;17.90;;;12.45;;
18102;SDS011;9178;51.120;6.192;2022-07-23T07:06:08;15.30;;;12.52;;
18102;SDS011;9178;51.120;6.192;2022-07-23T07:08:35;22.02;;;15.05;;
18102;SDS011;9178;51.120;6.192;2022-07-23T07:11:02;20.90;;;13.55;;
18102;SDS011;9178;51.120;6.192;2022-07-23T07:13:29;20.02;;;13.50;;
18102;SDS011;9178;51.120;6.192;2022-07-23T07:15:56;19.70;;;14.88;;
18102;SDS011;9178;51.120;6.192;2022-07-23T07:18:23;20.55;;;14.50;;
18102;SDS011;9178;51.120;6.192;2022-07-23T07:20:50;16.88;;;13.93;;
18102;SDS011;9178;51.120;6.192;2022-07-23T07:23:18;17.92;;;14.70;;
18102;SDS011;9178;51.120;6.192;2022-07-23T07:25:45;16.85;;;12.93;;
18102;SDS011;9178;51.120;6.192;2022-07-23T07:28:12;17.38;;;12.85;;
18102;SDS011;9178;51.120;6.192;2022-07-23T07:30:39;17.98;;;13.57;;
18102;SDS011;9178;51.120;6.192;2022-07-23T07:33:06;19.60;;;13.80;;
18102;SDS011;9178;51.120;6.192;2022-07-23T07:35:33;19.08;;;14.00;;
18102;SDS011;9178;51.120;6.192;2022-07-23T07:38:00;17.65;;;12.90;;
18102;SDS011;9178;51.120;6.192;2022-07-23T07:40:28;17.45;;;12.55;;
18102;SDS011;9178;51.120;6.192;2022-07-23T07:42:55;17.60;;;11.73;;
18102;SDS011;9178;51.120;6.192;2022-07-23T07:45:23;15.02;;;12.57;;
18102;SDS011;9178;51.120;6.192;2022-07-23T07:47:50;19.05;;;11.55;;
18102;SDS011;9178;51.120;6.192;2022-07-23T07:50:17;15.05;;;11.02;;
18102;SDS011;9178;51.120;6.192;2022-07-23T07:52:44;14.52;;;10.38;;
18102;SDS011;9178;51.120;6.192;2022-07-23T07:55:11;13.77;;;9.48;;
18102;SDS011;9178;51.120;6.192;2022-07-23T07:57:40;11.00;;;8.27;;
18102;SDS011;9178;51.120;6.192;2022-07-23T08:00:08;13.10;;;7.80;;
18102;SDS011;9178;51.120;6.192;2022-07-23T08:02:40;11.10;;;8.85;;
18102;SDS011;9178;51.120;6.192;2022-07-23T08:05:11;12.13;;;8.65;;
18102;SDS011;9178;51.120;6.192;2022-07-23T08:07:38;14.77;;;8.85;;
18102;SDS011;9178;51.120;6.192;2022-07-23T08:10:05;17.52;;;8.50;;
18102;SDS011;9178;51.120;6.192;2022-07-23T08:12:39;9.50;;;6.72;;
18102;SDS011;9178;51.120;6.192;2022-07-23T08:15:07;12.90;;;7.78;;
18102;SDS011;9178;51.120;6.192;2022-07-23T08:17:34;9.52;;;7.25;;
18102;SDS011;9178;51.120;6.192;2022-07-23T08:20:01;8.85;;;6.97;;
18102;SDS011;9178;51.120;6.192;2022-07-23T08:22:41;11.07;;;7.85;;
18102;SDS011;9178;51.120;6.192;2022-07-23T08:25:09;12.05;;;6.93;;
18102;SDS011;9178;51.120;6.192;2022-07-23T08:27:36;8.10;;;6.95;;
18102;SDS011;9178;51.120;6.192;2022-07-23T08:30:04;9.65;;;6.35;;
18102;SDS011;9178;51.120;6.192;2022-07-23T08:32:32;7.03;;;5.95;;
18102;SDS011;9178;51.120;6.192;2022-07-23T08:34:59;7.13;;;6.43;;
18102;SDS011;9178;51.120;6.192;2022-07-23T08:37:26;8.32;;;5.40;;
18102;SDS011;9178;51.120;6.192;2022-07-23T08:39:52;8.75;;;6.20;;
18102;SDS011;9178;51.120;6.192;2022-07-23T08:42:21;7.57;;;5.97;;
18102;SDS011;9178;51.120;6.192;2022-07-23T08:44:48;5.65;;;5.03;;
18102;SDS011;9178;51.120;6.192;2022-07-23T08:47:19;6.65;;;4.95;;
18102;SDS011;9178;51.120;6.192;2022-07-23T08:49:46;6.55;;;4.93;;
18102;SDS011;9178;51.120;6.192;2022-07-23T08:52:13;15.68;;;5.78;;
18102;SDS011;9178;51.120;6.192;2022-07-23T08:54:41;5.63;;;5.05;;
18102;SDS011;9178;51.120;6.192;2022-07-23T08:57:09;12.43;;;5.28;;
18102;SDS011;9178;51.120;6.192;2022-07-23T08:59:35;5.25;;;4.47;;
18102;SDS011;9178;51.120;6.192;2022-07-23T09:02:02;4.68;;;4.20;;
18102;SDS011;9178;51.120;6.192;2022-07-23T09:04:31;10.73;;;4.47;;
18102;SDS011;9178;51.120;6.192;2022-07-23T09:06:58;5.85;;;4.68;;
18102;SDS011;9178;51.120;6.192;2022-07-23T09:09:27;5.57;;;4.47;;
18102;SDS011;9178;51.120;6.192;2022-07-23T09:12:01;5.00;;;4.13;;
18102;SDS011;9178;51.120;6.192;2022-07-23T09:14:36;6.57;;;3.80;;
18102;SDS011;9178;51.120;6.192;2022-07-23T09:17:08;7.63;;;3.78;;
18102;SDS011;9178;51.120;6.192;2022-07-23T09:19:37;4.00;;;3.65;;
18102;SDS011;9178;51.120;6.192;2022-07-23T09:22:20;4.90;;;4.40;;
18102;SDS011;9178;51.120;6.192;2022-07-23T09:25:04;6.10;;;3.88;;
18102;SDS011;9178;51.120;6.192;2022-07-23T09:27:46;5.90;;;3.53;;
18102;SDS011;9178;51.120;6.192;2022-07-23T09:30:17;4.40;;;2.67;;
18102;SDS011;9178;51.120;6.192;2022-07-23T09:32:44;5.38;;;3.13;;
18102;SDS011;9178;51.120;6.192;2022-07-23T09:35:44;2.88;;;2.58;;
18102;SDS011;9178;51.120;6.192;2022-07-23T09:38:14;3.15;;;2.80;;
18102;SDS011;9178;51.120;6.192;2022-07-23T09:40:42;4.65;;;2.78;;
18102;SDS011;9178;51.120;6.192;2022-07-23T09:43:10;6.70;;;2.70;;
18102;SDS011;9178;51.120;6.192;2022-07-23T09:45:38;8.13;;;3.10;;
18102;SDS011;9178;51.120;6.192;2022-07-23T09:48:12;3.97;;;2.90;;
18102;SDS011;9178;51.120;6.192;2022-07-23T09:50:40;3.17;;;2.75;;
18102;SDS011;9178;51.120;6.192;2022-07-23T09:53:09;4.93;;;2.70;;
18102;SDS011;9178;51.120;6.192;2022-07-23T09:55:49;3.80;;;2.60;;
18102;SDS011;9178;51.120;6.192;2022-07-23T09:58:19;4.13;;;2.60;;
18102;SDS011;9178;51.120;6.192;2022-07-23T10:00:50;2.95;;;2.58;;
18102;SDS011;9178;51.120;6.192;2022-07-23T10:03:18;2.92;;;2.10;;
18102;SDS011;9178;51.120;6.192;2022-07-23T10:05:46;3.55;;;1.95;;
18102;SDS011;9178;51.120;6.192;2022-07-23T10:08:19;2.47;;;2.28;;
18102;SDS011;9178;51.120;6.192;2022-07-23T10:10:48;3.67;;;2.35;;
18102;SDS011;9178;51.120;6.192;2022-07-23T10:13:17;5.22;;;2.38;;
18102;SDS011;9178;51.120;6.192;2022-07-23T10:16:02;2.97;;;2.47;;
18102;SDS011;9178;51.120;6.192;2022-07-23T10:18:29;2.13;;;1.92;;
18102;SDS011;9178;51.120;6.192;2022-07-23T10:20:56;20.30;;;3.33;;
18102;SDS011;9178;51.120;6.192;2022-07-23T10:23:27;6.50;;;1.80;;
18102;SDS011;9178;51.120;6.192;2022-07-23T10:26:03;5.85;;;2.10;;
18102;SDS011;9178;51.120;6.192;2022-07-23T10:28:48;5.47;;;2.28;;
18102;SDS011;9178;51.120;6.192;2022-07-23T10:31:35;9.68;;;2.53;;
18102;SDS011;9178;51.120;6.192;2022-07-23T10:34:15;5.40;;;2.10;;
18102;SDS011;9178;51.120;6.192;2022-07-23T10:36:51;5.68;;;2.08;;
18102;SDS011;9178;51.120;6.192;2022-07-23T10:39:24;2.15;;;1.90;;
18102;SDS011;9178;51.120;6.192;2022-07-23T10:42:07;3.67;;;1.83;;
18102;SDS011;9178;51.120;6.192;2022-07-23T10:44:37;2.55;;;1.70;;
18102;SDS011;9178;51.120;6.192;2022-07-23T10:47:05;1.52;;;1.42;;
18102;SDS011;9178;51.120;6.192;2022-07-23T10:52:48;2.70;;;1.42;;
18102;SDS011;9178;51.120;6.192;2022-07-23T10:55:42;1.48;;;1.27;;
18102;SDS011;9178;51.120;6.192;2022-07-23T10:58:11;1.35;;;1.10;;
18102;SDS011;9178;51.120;6.192;2022-07-23T11:00:44;2.95;;;1.30;;
18102;SDS011;9178;51.120;6.192;2022-07-23T11:03:28;3.53;;;1.67;;
18102;SDS011;9178;51.120;6.192;2022-07-23T11:06:01;2.30;;;1.20;;
18102;SDS011;9178;51.120;6.192;2022-07-23T11:08:29;2.00;;;1.30;;
18102;SDS011;9178;51.120;6.192;2022-07-23T11:11:08;1.30;;;1.20;;
18102;SDS011;9178;51.120;6.192;2022-07-23T11:13:45;1.23;;;1.13;;
18102;SDS011;9178;51.120;6.192;2022-07-23T11:16:24;3.40;;;1.48;;
18102;SDS011;9178;51.120;6.192;2022-07-23T11:18:55;6.07;;;1.27;;
18102;SDS011;9178;51.120;6.192;2022-07-23T11:24:22;1.75;;;1.00;;
18102;SDS011;9178;51.120;6.192;2022-07-23T11:26:52;12.48;;;1.92;;
18102;SDS011;9178;51.120;6.192;2022-07-23T11:29:39;2.08;;;1.10;;
18102;SDS011;9178;51.120;6.192;2022-07-23T11:35:18;5.97;;;1.52;;
18102;SDS011;9178;51.120;6.192;2022-07-23T11:37:47;2.65;;;0.90;;
18102;SDS011;9178;51.120;6.192;2022-07-23T11:40:14;8.43;;;1.50;;
18102;SDS011;9178;51.120;6.192;2022-07-23T11:42:52;8.30;;;1.63;;
18102;SDS011;9178;51.120;6.192;2022-07-23T11:45:20;1.83;;;0.98;;
18102;SDS011;9178;51.120;6.192;2022-07-23T11:47:47;3.83;;;1.40;;
18102;SDS011;9178;51.120;6.192;2022-07-23T11:50:14;1.40;;;1.00;;
18102;SDS011;9178;51.120;6.192;2022-07-23T11:52:41;1.55;;;1.20;;
18102;SDS011;9178;51.120;6.192;2022-07-23T11:55:09;3.13;;;0.98;;
18102;SDS011;9178;51.120;6.192;2022-07-23T11:57:38;1.75;;;1.10;;
18102;SDS011;9178;51.120;6.192;2022-07-23T12:00:08;1.20;;;1.10;;
18102;SDS011;9178;51.120;6.192;2022-07-23T12:02:36;2.10;;;1.20;;
18102;SDS011;9178;51.120;6.192;2022-07-23T12:05:04;4.65;;;1.58;;
18102;SDS011;9178;51.120;6.192;2022-07-23T12:07:33;1.40;;;1.20;;
18102;SDS011;9178;51.120;6.192;2022-07-23T12:10:02;3.70;;;1.40;;
18102;SDS011;9178;51.120;6.192;2022-07-23T12:12:36;1.77;;;1.10;;
18102;SDS011;9178;51.120;6.192;2022-07-23T12:15:04;2.08;;;1.40;;
18102;SDS011;9178;51.120;6.192;2022-07-23T12:17:33;1.35;;;1.20;;
18102;SDS011;9178;51.120;6.192;2022-07-23T12:20:02;2.00;;;1.20;;
18102;SDS011;9178;51.120;6.192;2022-07-23T12:22:34;2.30;;;1.40;;
18102;SDS011;9178;51.120;6.192;2022-07-23T12:25:03;4.88;;;1.52;;
18102;SDS011;9178;51.120;6.192;2022-07-23T12:27:32;1.52;;;1.38;;
18102;SDS011;9178;51.120;6.192;2022-07-23T12:30:14;1.63;;;1.20;;
18102;SDS011;9178;51.120;6.192;2022-07-23T12:32:47;2.35;;;1.40;;
18102;SDS011;9178;51.120;6.192;2022-07-23T12:35:16;1.10;;;1.00;;
18102;SDS011;9178;51.120;6.192;2022-07-23T12:37:43;1.20;;;1.10;;
18102;SDS011;9178;51.120;6.192;2022-07-23T12:40:18;1.10;;;1.00;;
18102;SDS011;9178;51.120;6.192;2022-07-23T12:42:46;2.95;;;1.00;;
18102;SDS011;9178;51.120;6.192;2022-07-23T12:45:14;2.70;;;1.10;;
18102;SDS011;9178;51.120;6.192;2022-07-23T12:47:56;3.85;;;1.13;;
18102;SDS011;9178;51.120;6.192;2022-07-23T12:53:18;2.25;;;1.20;;
18102;SDS011;9178;51.120;6.192;2022-07-23T12:55:47;1.70;;;1.30;;
18102;SDS011;9178;51.120;6.192;2022-07-23T12:58:17;6.88;;;1.40;;
18102;SDS011;9178;51.120;6.192;2022-07-23T13:00:51;1.35;;;1.25;;
18102;SDS011;9178;51.120;6.192;2022-07-23T13:03:22;12.32;;;1.52;;
18102;SDS011;9178;51.120;6.192;2022-07-23T13:05:54;2.13;;;1.25;;
18102;SDS011;9178;51.120;6.192;2022-07-23T13:08:21;1.27;;;1.02;;
18102;SDS011;9178;51.120;6.192;2022-07-23T13:10:49;4.35;;;1.10;;
18102;SDS011;9178;51.120;6.192;2022-07-23T13:13:16;1.45;;;1.17;;
18102;SDS011;9178;51.120;6.192;2022-07-23T13:15:43;1.10;;;1.00;;
18102;SDS011;9178;51.120;6.192;2022-07-23T13:18:10;3.92;;;1.48;;
18102;SDS011;9178;51.120;6.192;2022-07-23T13:20:38;1.38;;;1.20;;
18102;SDS011;9178;51.120;6.192;2022-07-23T13:23:05;3.50;;;1.52;;
18102;SDS011;9178;51.120;6.192;2022-07-23T13:25:33;1.92;;;1.20;;
18102;SDS011;9178;51.120;6.192;2022-07-23T13:28:00;6.03;;;1.95;;
18102;SDS011;9178;51.120;6.192;2022-07-23T13:30:26;9.90;;;1.88;;
18102;SDS011;9178;51.120;6.192;2022-07-23T13:32:53;3.35;;;1.60;;
18102;SDS011;9178;51.120;6.192;2022-07-23T13:35:20;1.23;;;1.13;;
18102;SDS011;9178;51.120;6.192;2022-07-23T13:37:49;2.78;;;1.40;;
18102;SDS011;9178;51.120;6.192;2022-07-23T13:40:16;1.75;;;1.30;;
18102;SDS011;9178;51.120;6.192;2022-07-23T13:42:43;5.60;;;2.63;;
18102;SDS011;9178;51.120;6.192;2022-07-23T13:45:10;4.07;;;1.40;;
18102;SDS011;9178;51.120;6.192;2022-07-23T13:47:37;12.02;;;1.92;;
18102;SDS011;9178;51.120;6.192;2022-07-23T13:50:04;1.10;;;1.00;;
18102;SDS011;9178;51.120;6.192;2022-07-23T13:52:32;4.30;;;1.40;;
18102;SDS011;9178;51.120;6.192;2022-07-23T13:55:01;3.10;;;1.40;;
18102;SDS011;9178;51.120;6.192;2022-07-23T13:57:29;1.63;;;1.20;;
18102;SDS011;9178;51.120;6.192;2022-07-23T13:59:56;1.40;;;1.30;;
18102;SDS011;9178;51.120;6.192;2022-07-23T14:02:23;1.70;;;1.20;;
18102;SDS011;9178;51.120;6.192;2022-07-23T14:04:50;1.23;;;1.17;;
18102;SDS011;9178;51.120;6.192;2022-07-23T14:07:17;1.20;;;1.10;;
18102;SDS011;9178;51.120;6.192;2022-07-23T14:09:44;2.20;;;1.35;;
18102;SDS011;9178;51.120;6.192;2022-07-23T14:12:13;2.47;;;1.23;;
18102;SDS011;9178;51.120;6.192;2022-07-23T14:14:39;7.82;;;1.65;;
18102;SDS011;9178;51.120;6.192;2022-07-23T14:17:08;1.33;;;1.10;;
18102;SDS011;9178;51.120;6.192;2022-07-23T14:19:35;2.25;;;1.33;;
18102;SDS011;9178;51.120;6.192;2022-07-23T14:22:02;1.38;;;1.25;;
18102;SDS011;9178;51.120;6.192;2022-07-23T14:24:28;1.20;;;1.05;;
18102;SDS011;9178;51.120;6.192;2022-07-23T14:26:55;1.30;;;1.20;;
18102;SDS011;9178;51.120;6.192;2022-07-23T14:29:23;1.77;;;1.23;;
18102;SDS011;9178;51.120;6.192;2022-07-23T14:31:50;1.58;;;1.48;;
18102;SDS011;9178;51.120;6.192;2022-07-23T14:34:17;1.92;;;1.83;;
18102;SDS011;9178;51.120;6.192;2022-07-23T14:36:44;1.50;;;1.40;;
18102;SDS011;9178;51.120;6.192;2022-07-23T14:39:11;5.35;;;2.83;;
18102;SDS011;9178;51.120;6.192;2022-07-23T14:41:38;4.22;;;3.25;;
18102;SDS011;9178;51.120;6.192;2022-07-23T14:44:05;3.13;;;2.20;;
18102;SDS011;9178;51.120;6.192;2022-07-23T14:46:33;7.10;;;1.90;;
18102;SDS011;9178;51.120;6.192;2022-07-23T14:49:00;1.42;;;1.20;;
18102;SDS011;9178;51.120;6.192;2022-07-23T14:51:27;2.78;;;1.50;;
18102;SDS011;9178;51.120;6.192;2022-07-23T14:53:53;2.75;;;1.40;;
18102;SDS011;9178;51.120;6.192;2022-07-23T14:56:20;11.57;;;1.65;;
18102;SDS011;9178;51.120;6.192;2022-07-23T14:58:47;2.33;;;1.30;;
18102;SDS011;9178;51.120;6.192;2022-07-23T15:01:17;3.28;;;1.65;;
18102;SDS011;9178;51.120;6.192;2022-07-23T15:03:45;2.72;;;1.42;;
18102;SDS011;9178;51.120;6.192;2022-07-23T15:06:12;3.03;;;1.48;;
18102;SDS011;9178;51.120;6.192;2022-07-23T15:08:39;2.05;;;1.40;;
18102;SDS011;9178;51.120;6.192;2022-07-23T15:11:06;1.95;;;1.85;;
18102;SDS011;9178;51.120;6.192;2022-07-23T15:13:34;3.28;;;1.40;;
18102;SDS011;9178;51.120;6.192;2022-07-23T15:16:01;1.73;;;1.33;;
18102;SDS011;9178;51.120;6.192;2022-07-23T15:18:29;3.03;;;1.73;;